Lr2 Pioneer — VREE7 — position and weather

sailwx.info

Track history (hours):
 
Tides and Currents Weather Stations Pressure Air Temp Water Temp Dewpoint Dewpoint Depression Visibility Wind Speed Wind Dir Waves Ship Positions

Lr2 Pioneer

Last reported at 2016-May-18 06:16 UTC. Time now 2016-May-27 10:20 UTC.
Position N 01°16' E 104°13'.
Warning: this ship's position is 9 days out of date.

Length 244 m; draft 12.4 m.

Type: Tanker. MMSI: 477114400.

Date/timePositionNaut miles runAvg speedWind from/ knotsBaromVisibWave heightAir tempDewpointWater temp
2016-May-18 06:16N 01°16' E 104°13'7 9.7
2016-May-18 05:33N 01°15' E 104°06'9 9.1
2016-May-18 04:34N 01°14' E 103°57'3 2.7
2016-May-18 03:32N 01°15' E 103°55'0 0.2
2016-May-18 02:32N 01°15' E 103°54'0 0.1
2016-May-18 01:32N 01°15' E 103°54'0 0.0
2016-May-18 00:32N 01°15' E 103°54'0 0.0
2016-May-17 23:32N 01°15' E 103°54'0 0.0
2016-May-17 22:23N 01°15' E 103°54'0 0.1
2016-May-17 21:29N 01°15' E 103°55'0 0.1
2016-May-17 20:32N 01°15' E 103°55'0 0.1
2016-May-17 19:32N 01°15' E 103°55'0 0.0
2016-May-17 18:26N 01°15' E 103°55'0 0.1
2016-May-17 17:32N 01°15' E 103°55'0 0.1
2016-May-17 16:23N 01°15' E 103°55'1 0.9
2016-May-17 15:33N 01°14' E 103°55'3 3.4
2016-May-17 14:33N 01°15' E 103°58'3 3.1
2016-May-17 13:33N 01°13' E 103°55'6 5.8
2016-May-17 12:34N 01°11' E 103°50'8 7.5
2016-May-17 11:33N 01°06' E 103°44'8 7.5
2016-May-17 10:33N 01°04' E 103°37'9 8.7
2016-May-17 09:33N 01°08' E 103°30'10 8.6
2016-May-17 08:24N 01°14' E 103°21'47 9.6
2016-May-17 03:32N 01°40' E 102°43'12 9.6
2016-May-17 02:17N 01°45' E 102°32'7 9.8
2016-May-17 01:34N 01°48' E 102°25'10 9.5
2016-May-17 00:33N 01°52' E 102°17'1210.0
2016-May-16 23:21N 01°60' E 102°07'  
Track history (hours):
 
Tides and Currents Weather Stations Pressure Air Temp Water Temp Dewpoint Dewpoint Depression Visibility Wind Speed Wind Dir Waves Ship Positions

Lr2 Pioneer

Last reported at 2016-May-18 06:16 UTC. Time now 2016-May-27 10:20 UTC.
Position N 01°16' E 104°13'.
Warning: this ship's position is 9 days out of date.

Length 244 m; draft 12.4 m.

Type: Tanker. MMSI: 477114400.

Date/timePositionNaut miles runAvg speedWind from/ knotsBaromVisibWave heightAir tempDewpointWater temp
2016-May-18 06:16N 01°16' E 104°13'7 9.7
2016-May-18 05:33N 01°15' E 104°06'9 9.1
2016-May-18 04:34N 01°14' E 103°57'3 2.7
2016-May-18 03:32N 01°15' E 103°55'0 0.2
2016-May-18 02:32N 01°15' E 103°54'0 0.1
2016-May-18 01:32N 01°15' E 103°54'0 0.0
2016-May-18 00:32N 01°15' E 103°54'0 0.0
2016-May-17 23:32N 01°15' E 103°54'0 0.0
2016-May-17 22:23N 01°15' E 103°54'0 0.1
2016-May-17 21:29N 01°15' E 103°55'0 0.1
2016-May-17 20:32N 01°15' E 103°55'0 0.1
2016-May-17 19:32N 01°15' E 103°55'0 0.0
2016-May-17 18:26N 01°15' E 103°55'0 0.1
2016-May-17 17:32N 01°15' E 103°55'0 0.1
2016-May-17 16:23N 01°15' E 103°55'1 0.9
2016-May-17 15:33N 01°14' E 103°55'3 3.4
2016-May-17 14:33N 01°15' E 103°58'3 3.1
2016-May-17 13:33N 01°13' E 103°55'6 5.8
2016-May-17 12:34N 01°11' E 103°50'8 7.5
2016-May-17 11:33N 01°06' E 103°44'8 7.5
2016-May-17 10:33N 01°04' E 103°37'9 8.7
2016-May-17 09:33N 01°08' E 103°30'10 8.6
2016-May-17 08:24N 01°14' E 103°21'47 9.6
2016-May-17 03:32N 01°40' E 102°43'12 9.6
2016-May-17 02:17N 01°45' E 102°32'7 9.8
2016-May-17 01:34N 01°48' E 102°25'10 9.5
2016-May-17 00:33N 01°52' E 102°17'1210.0
2016-May-16 23:21N 01°60' E 102°07'  

Dump ship's entire track history